Time;durP1;ratioP1;P1;durP2;ratioP2;P2;SDS_P1;SDS_P2;PMS_P1;PMS_P2;Temp;Humidity;BMP_temperature;BMP_pressure;BME280_temperature;BME280_humidity;BME280_pressure;Samples;Min_cycle;Max_cycle;Signal;HPM_P1;HPM_P2
2021/04/27 00:00:15;;;;;;;3.28;1.63;;;7.20;70.50;;;;;;5094749;28;20108;-71
2021/04/27 00:02:41;;;;;;;5.88;1.98;;;7.20;73.50;;;;;;5094091;28;20020;-70
2021/04/27 00:05:09;;;;;;;4.72;1.55;;;7.30;72.50;;;;;;5094802;28;20012;-70
2021/04/27 00:07:35;;;;;;;5.57;3.08;;;7.20;70.30;;;;;;5095138;28;20027;-71
2021/04/27 00:10:03;;;;;;;6.15;2.72;;;7.10;68.50;;;;;;5093614;28;20043;-71
2021/04/27 00:12:28;;;;;;;7.18;3.47;;;7.10;66.60;;;;;;5093822;28;20132;-70
2021/04/27 00:14:54;;;;;;;11.10;2.58;;;7.00;66.30;;;;;;5094988;28;20464;-71
2021/04/27 00:17:20;;;;;;;11.00;3.45;;;6.90;67.30;;;;;;5094854;28;20024;-71
2021/04/27 00:19:45;;;;;;;7.70;2.25;;;6.80;65.50;;;;;;5093540;28;20101;-71
2021/04/27 00:22:11;;;;;;;6.43;2.30;;;6.80;70.20;;;;;;5095055;28;20016;-71
2021/04/27 00:24:36;;;;;;;8.57;2.70;;;6.80;72.20;;;;;;5093169;28;20114;-71
2021/04/27 00:27:02;;;;;;;4.93;2.05;;;6.90;72.30;;;;;;5095071;28;20027;-70
2021/04/27 00:29:28;;;;;;;5.43;1.77;;;6.90;73.90;;;;;;5093351;28;20016;-71
2021/04/27 00:31:54;;;;;;;6.45;1.98;;;7.00;73.30;;;;;;5094730;28;20368;-70
2021/04/27 00:34:20;;;;;;;4.38;2.10;;;6.90;71.10;;;;;;5094959;28;20027;-71
2021/04/27 00:36:46;;;;;;;8.15;3.05;;;6.90;72.60;;;;;;5094453;28;20020;-71
2021/04/27 00:39:11;;;;;;;6.18;2.30;;;6.80;68.10;;;;;;5093503;28;20024;-71
2021/04/27 00:41:37;;;;;;;9.32;3.08;;;6.80;70.30;;;;;;5093131;28;20073;-71
2021/04/27 00:44:04;;;;;;;9.23;3.55;;;6.80;72.10;;;;;;5093357;28;20028;-71
2021/04/27 00:46:29;;;;;;;7.07;2.67;;;6.70;66.70;;;;;;5094523;28;20062;-71
2021/04/27 00:48:55;;;;;;;11.35;4.10;;;6.60;71.40;;;;;;5093067;28;20460;-71
2021/04/27 00:51:20;;;;;;;9.30;2.88;;;6.60;67.40;;;;;;5094380;28;20027;-71
2021/04/27 00:53:47;;;;;;;6.68;3.95;;;6.50;68.40;;;;;;5094029;28;20031;-70
2021/04/27 00:56:13;;;;;;;4.65;2.75;;;6.40;67.30;;;;;;5093029;28;20101;-70
2021/04/27 00:58:39;;;;;;;8.02;2.90;;;6.50;72.20;;;;;;5094215;28;20061;-70
2021/04/27 01:01:04;;;;;;;9.25;3.20;;;6.40;68.60;;;;;;5092683;28;20016;-71
2021/04/27 01:03:30;;;;;;;5.78;2.22;;;6.40;68.00;;;;;;5092370;28;20106;-71
2021/04/27 01:05:56;;;;;;;12.48;3.28;;;6.40;71.90;;;;;;5094381;28;20024;-72
2021/04/27 01:08:45;;;;;;;7.93;2.20;;;6.40;70.70;;;;;;5094038;28;20020;-70
2021/04/27 01:11:30;;;;;;;7.32;3.35;;;6.40;72.50;;;;;;5092744;28;20045;-71
2021/04/27 01:14:09;;;;;;;6.03;3.03;;;6.30;68.30;;;;;;5092831;28;20345;-71
2021/04/27 01:16:50;;;;;;;9.13;3.43;;;6.30;70.10;;;;;;5092607;28;20234;-71
2021/04/27 01:19:27;;;;;;;7.97;3.53;;;6.30;68.30;;;;;;5092805;28;20262;-71
2021/04/27 01:21:55;;;;;;;11.05;3.47;;;6.20;67.90;;;;;;5092649;28;20020;-70
2021/04/27 01:24:59;;;;;;;9.60;3.85;;;6.20;67.60;;;;;;5092565;28;20031;-70
2021/04/27 01:27:25;;;;;;;8.25;3.10;;;6.10;67.60;;;;;;5011562;28;20084;-70
2021/04/27 01:29:52;;;;;;;9.60;4.45;;;6.10;68.80;;;;;;5073899;28;20027;-71
2021/04/27 01:32:20;;;;;;;8.60;3.10;;;6.10;67.80;;;;;;5093778;28;20072;-71
2021/04/27 01:34:47;;;;;;;9.02;4.03;;;6.00;68.90;;;;;;5092204;28;20016;-71
2021/04/27 01:37:14;;;;;;;6.70;4.05;;;6.00;68.00;;;;;;5092418;28;20034;-71
2021/04/27 01:39:40;;;;;;;8.13;3.03;;;6.00;70.10;;;;;;5093515;28;20020;-71
2021/04/27 01:42:08;;;;;;;9.15;3.75;;;5.90;69.30;;;;;;5092384;28;20016;-70
2021/04/27 01:44:35;;;;;;;10.50;4.40;;;5.90;68.40;;;;;;5092117;28;20118;-71
2021/04/27 01:47:03;;;;;;;10.52;4.32;;;5.90;68.60;;;;;;5093640;28;20024;-71
2021/04/27 01:49:29;;;;;;;6.63;3.40;;;5.80;68.20;;;;;;5093399;28;20020;-71
2021/04/27 01:51:56;;;;;;;13.75;5.55;;;5.80;68.50;;;;;;5092194;28;20008;-71
2021/04/27 01:54:25;;;;;;;9.38;4.22;;;5.80;68.60;;;;;;5092073;28;20020;-71
2021/04/27 01:56:51;;;;;;;7.70;3.55;;;5.80;69.40;;;;;;5092276;28;20016;-71
2021/04/27 01:59:17;;;;;;;7.78;3.70;;;5.80;68.70;;;;;;5092454;28;20020;-70
2021/04/27 02:01:42;;;;;;;12.60;4.60;;;5.70;68.70;;;;;;5093256;28;20031;-70
2021/04/27 02:04:08;;;;;;;7.20;3.45;;;5.70;68.60;;;;;;5093292;28;20028;-71
2021/04/27 02:06:34;;;;;;;9.85;4.30;;;5.70;68.80;;;;;;5091457;28;20012;-71
2021/04/27 02:09:08;;;;;;;8.60;3.75;;;5.70;71.50;;;;;;5092581;28;20468;-71
2021/04/27 02:11:37;;;;;;;7.18;3.83;;;5.70;70.00;;;;;;5092888;28;20036;-70
2021/04/27 02:14:03;;;;;;;10.35;4.03;;;5.70;70.00;;;;;;5093116;28;20028;-70
2021/04/27 02:16:44;;;;;;;8.73;4.97;;;5.60;69.00;;;;;;5091755;28;20102;-71
2021/04/27 02:19:10;;;;;;;11.25;4.30;;;5.60;69.10;;;;;;5093172;28;20035;-71
2021/04/27 02:21:38;;;;;;;7.88;4.20;;;5.60;69.80;;;;;;5092859;28;20352;-71
2021/04/27 02:24:04;;;;;;;8.70;4.85;;;5.60;69.10;;;;;;5092847;28;20028;-71
2021/04/27 02:26:30;;;;;;;9.23;4.20;;;5.50;69.00;;;;;;5092919;28;20012;-71
2021/04/27 02:28:56;;;;;;;9.80;4.35;;;5.50;68.90;;;;;;5091068;28;20478;-71
2021/04/27 02:31:22;;;;;;;9.85;4.57;;;5.50;69.10;;;;;;5091557;28;20024;-71
2021/04/27 02:33:48;;;;;;;7.50;4.35;;;5.50;68.90;;;;;;5092292;28;20510;-71
2021/04/27 02:36:14;;;;;;;11.63;4.55;;;5.50;69.10;;;;;;5092712;28;20031;-72
2021/04/27 02:38:42;;;;;;;8.82;4.53;;;5.50;69.70;;;;;;5091071;28;20027;-70
2021/04/27 02:41:08;;;;;;;10.63;4.85;;;5.50;68.90;;;;;;5091262;28;20387;-71
2021/04/27 02:43:38;;;;;;;9.10;4.47;;;5.50;68.90;;;;;;5092010;28;20028;-71
2021/04/27 02:46:05;;;;;;;12.40;4.55;;;5.50;68.90;;;;;;5092682;28;20016;-70
2021/04/27 02:48:31;;;;;;;9.02;4.65;;;5.50;68.90;;;;;;5091031;28;20099;-71
2021/04/27 02:50:59;;;;;;;10.02;4.38;;;5.50;69.00;;;;;;5090844;28;20092;-70
2021/04/27 02:53:25;;;;;;;8.43;4.65;;;5.50;69.10;;;;;;5092269;28;20027;-70
2021/04/27 02:55:51;;;;;;;7.07;4.38;;;5.40;69.00;;;;;;5091947;28;20024;-70
2021/04/27 02:58:17;;;;;;;9.15;5.28;;;5.40;69.20;;;;;;5091216;28;20460;-71
2021/04/27 03:00:44;;;;;;;13.07;5.13;;;5.40;69.20;;;;;;5090836;28;20016;-71
2021/04/27 03:03:10;;;;;;;10.27;4.97;;;5.30;69.40;;;;;;5092334;28;20031;-70
2021/04/27 03:05:36;;;;;;;8.25;4.45;;;5.30;69.20;;;;;;5090754;28;20016;-71
2021/04/27 03:08:03;;;;;;;9.63;4.60;;;5.30;69.20;;;;;;5092415;28;20016;-72
2021/04/27 03:10:28;;;;;;;12.13;4.68;;;5.30;69.30;;;;;;5092304;28;20040;-72
2021/04/27 03:12:55;;;;;;;9.02;5.10;;;5.20;69.20;;;;;;5091859;28;20039;-71
2021/04/27 03:15:21;;;;;;;7.00;4.05;;;5.30;69.30;;;;;;5092311;28;20016;-72
2021/04/27 03:17:46;;;;;;;9.18;4.60;;;5.20;69.20;;;;;;5073710;28;20051;-71
2021/04/27 03:20:13;;;;;;;8.18;5.13;;;5.20;70.90;;;;;;5092547;28;20104;-71
2021/04/27 03:22:40;;;;;;;10.57;4.78;;;5.20;70.50;;;;;;5094597;28;20016;-72
2021/04/27 03:25:07;;;;;;;11.98;5.13;;;5.20;69.40;;;;;;5096065;28;20016;-71
2021/04/27 03:27:33;;;;;;;8.07;5.20;;;5.20;69.40;;;;;;5096148;28;20055;-71
2021/04/27 03:29:59;;;;;;;14.75;4.88;;;5.20;69.50;;;;;;5094613;28;20103;-71
2021/04/27 03:32:25;;;;;;;8.80;5.07;;;5.10;69.60;;;;;;5094644;28;20012;-70
2021/04/27 03:34:51;;;;;;;8.88;5.07;;;5.10;69.90;;;;;;5095730;28;20024;-72
2021/04/27 03:37:17;;;;;;;13.00;5.22;;;5.10;70.00;;;;;;5094831;28;20167;-71
2021/04/27 03:39:43;;;;;;;9.85;4.90;;;5.00;69.90;;;;;;5095556;28;20103;-71
2021/04/27 03:42:09;;;;;;;10.75;5.75;;;5.00;70.10;;;;;;5094690;28;20052;-71
2021/04/27 03:44:34;;;;;;;14.55;4.78;;;5.00;70.30;;;;;;5094548;28;20046;-71
2021/04/27 03:47:00;;;;;;;12.52;5.22;;;4.90;70.20;;;;;;5095409;28;20031;-71
2021/04/27 03:49:27;;;;;;;11.25;5.18;;;4.90;70.40;;;;;;5095961;28;20466;-71
2021/04/27 03:51:52;;;;;;;9.82;4.63;;;4.90;70.40;;;;;;5094392;28;20110;-70
2021/04/27 03:54:18;;;;;;;10.52;5.07;;;4.90;70.40;;;;;;5096593;28;20125;-71
2021/04/27 03:56:44;;;;;;;13.20;5.65;;;4.80;70.60;;;;;;5095764;28;20437;-71
2021/04/27 03:59:10;;;;;;;10.07;4.90;;;4.80;70.80;;;;;;5096234;28;20031;-71
2021/04/27 04:01:36;;;;;;;11.43;5.47;;;4.80;70.70;;;;;;5094403;28;20420;-71
2021/04/27 04:04:02;;;;;;;12.10;5.25;;;4.80;70.90;;;;;;5095292;28;20024;-71
2021/04/27 04:06:28;;;;;;;11.73;5.13;;;4.80;70.70;;;;;;5095582;28;20361;-71
2021/04/27 04:08:54;;;;;;;8.95;4.88;;;4.80;70.60;;;;;;5094013;28;20124;-71
2021/04/27 04:11:20;;;;;;;9.75;5.40;;;4.80;72.10;;;;;;5095358;28;20488;-71
2021/04/27 04:13:45;;;;;;;9.63;5.63;;;4.80;70.60;;;;;;5093676;28;20038;-71
2021/04/27 04:16:11;;;;;;;10.73;5.30;;;4.80;70.40;;;;;;5093781;28;20445;-72
2021/04/27 04:18:36;;;;;;;10.10;5.38;;;4.80;70.50;;;;;;5095065;28;20020;-71
2021/04/27 04:21:03;;;;;;;10.13;5.65;;;4.80;70.30;;;;;;5093494;28;20098;-71
2021/04/27 04:23:29;;;;;;;12.32;5.70;;;4.80;70.50;;;;;;5094965;28;20016;-70
2021/04/27 04:25:55;;;;;;;14.48;6.88;;;4.80;70.40;;;;;;5093750;28;20184;-71
2021/04/27 04:28:21;;;;;;;13.32;6.78;;;4.80;70.30;;;;;;5093577;28;20069;-71
2021/04/27 04:30:47;;;;;;;10.63;5.15;;;4.80;70.10;;;;;;5094771;28;20016;-70
2021/04/27 04:33:13;;;;;;;10.27;5.20;;;4.80;70.10;;;;;;5094671;28;20024;-71
2021/04/27 04:35:39;;;;;;;9.60;5.32;;;4.80;71.00;;;;;;5093538;28;20124;-71
2021/04/27 04:38:04;;;;;;;14.77;5.47;;;4.80;70.30;;;;;;5093534;28;20016;-71
2021/04/27 04:40:31;;;;;;;11.23;5.63;;;4.80;70.10;;;;;;5093485;28;20031;-71
2021/04/27 04:42:57;;;;;;;13.30;5.88;;;4.90;69.90;;;;;;5093343;28;20043;-71
2021/04/27 04:45:25;;;;;;;10.82;5.50;;;4.90;69.80;;;;;;5094651;28;20461;-70
2021/04/27 04:47:52;;;;;;;11.50;5.13;;;4.90;69.70;;;;;;5093274;28;20012;-70
2021/04/27 04:50:19;;;;;;;11.48;5.35;;;5.00;69.60;;;;;;5094755;28;20024;-70
2021/04/27 04:52:44;;;;;;;9.52;5.63;;;4.90;69.60;;;;;;5093144;28;20038;-70
2021/04/27 04:55:11;;;;;;;11.48;5.85;;;5.00;69.60;;;;;;5093231;28;20144;-70
2021/04/27 04:57:37;;;;;;;11.90;6.45;;;5.00;69.50;;;;;;5093337;28;20020;-70
2021/04/27 05:00:06;;;;;;;14.45;5.78;;;5.00;69.50;;;;;;5092564;28;20487;-71
2021/04/27 05:02:31;;;;;;;11.15;5.68;;;5.10;69.30;;;;;;5094488;28;20444;-71
2021/04/27 05:04:57;;;;;;;7.82;4.93;;;5.10;69.10;;;;;;5093998;28;20031;-71
2021/04/27 05:07:25;;;;;;;14.13;5.32;;;5.20;69.00;;;;;;5094230;28;20023;-71
2021/04/27 05:09:51;;;;;;;11.15;5.50;;;5.20;68.30;;;;;;5092680;28;20048;-71
2021/04/27 05:12:16;;;;;;;11.48;6.53;;;5.30;68.30;;;;;;5094681;28;20031;-69
2021/04/27 05:14:43;;;;;;;8.77;6.05;;;5.40;67.90;;;;;;5093704;28;20027;-70
2021/04/27 05:17:12;;;;;;;12.68;5.65;;;5.40;67.70;;;;;;5094013;28;20020;-71
2021/04/27 05:19:38;;;;;;;11.35;5.57;;;5.50;67.60;;;;;;5094068;28;20119;-70
2021/04/27 05:22:05;;;;;;;11.05;6.57;;;5.60;67.10;;;;;;5092994;28;20436;-70
2021/04/27 05:24:31;;;;;;;10.65;5.55;;;5.60;67.00;;;;;;5094059;28;20035;-71
2021/04/27 05:26:57;;;;;;;9.07;5.30;;;5.60;67.10;;;;;;5093891;28;20096;-70
2021/04/27 05:29:23;;;;;;;9.70;5.13;;;5.70;66.90;;;;;;5093891;28;20418;-71
2021/04/27 05:31:49;;;;;;;13.77;5.65;;;5.80;66.90;;;;;;5093630;28;20020;-70
2021/04/27 05:34:15;;;;;;;9.07;5.32;;;5.90;66.50;;;;;;5094176;28;20023;-72
2021/04/27 05:36:42;;;;;;;8.82;4.75;;;5.90;65.90;;;;;;5092575;28;20088;-72
2021/04/27 05:39:08;;;;;;;14.05;5.22;;;5.90;65.80;;;;;;5092318;28;20039;-70
2021/04/27 05:41:33;;;;;;;7.85;5.38;;;6.00;65.70;;;;;;5092213;28;20175;-70
2021/04/27 05:43:59;;;;;;;9.50;6.10;;;6.00;65.40;;;;;;5090880;28;20047;-71
2021/04/27 05:46:25;;;;;;;12.15;5.75;;;6.10;65.50;;;;;;5093375;28;20020;-70
2021/04/27 05:48:51;;;;;;;8.45;4.85;;;6.20;65.10;;;;;;5091759;28;20027;-71
2021/04/27 05:51:16;;;;;;;10.95;5.47;;;6.20;64.60;;;;;;5092361;28;20016;-71
2021/04/27 05:53:42;;;;;;;11.88;5.43;;;6.30;64.10;;;;;;5092360;28;20112;-70
2021/04/27 05:56:08;;;;;;;8.02;5.05;;;6.40;63.80;;;;;;5092234;28;20042;-70
2021/04/27 05:58:33;;;;;;;9.85;5.60;;;6.50;63.40;;;;;;5093276;28;20359;-71
2021/04/27 06:00:59;;;;;;;10.32;4.82;;;6.60;63.70;;;;;;5091597;28;20016;-69
2021/04/27 06:03:25;;;;;;;8.20;5.03;;;6.70;62.80;;;;;;5091656;28;20074;-70
2021/04/27 06:05:50;;;;;;;8.80;5.05;;;6.70;62.50;;;;;;5092810;28;20024;-71
2021/04/27 06:08:16;;;;;;;13.32;5.70;;;6.90;62.30;;;;;;5091761;28;20020;-70
2021/04/27 06:10:41;;;;;;;11.07;4.97;;;6.90;61.50;;;;;;5091406;28;20040;-71
2021/04/27 06:13:07;;;;;;;8.10;4.88;;;7.00;61.10;;;;;;5092578;28;20024;-70
2021/04/27 06:15:32;;;;;;;10.63;5.50;;;7.20;60.70;;;;;;5093042;28;20471;-71
2021/04/27 06:17:58;;;;;;;12.57;5.45;;;7.30;60.30;;;;;;5091509;28;20027;-70
2021/04/27 06:20:24;;;;;;;9.68;5.00;;;7.40;59.10;;;;;;5093313;28;20061;-70
2021/04/27 06:22:49;;;;;;;11.10;5.18;;;7.50;59.90;;;;;;5092702;28;20053;-70
2021/04/27 06:25:15;;;;;;;6.97;4.72;;;7.60;58.60;;;;;;5091687;28;20023;-70
2021/04/27 06:27:41;;;;;;;9.50;5.18;;;7.80;57.90;;;;;;5091252;28;20016;-71
2021/04/27 06:30:09;;;;;;;12.43;5.10;;;7.80;57.30;;;;;;5090963;28;20333;-71
2021/04/27 06:32:35;;;;;;;10.10;4.70;;;7.90;56.90;;;;;;5091478;28;20069;-71
2021/04/27 06:35:02;;;;;;;10.38;4.95;;;8.00;56.80;;;;;;5092547;28;20024;-70
2021/04/27 06:37:28;;;;;;;9.13;5.25;;;8.10;56.30;;;;;;5091672;28;20110;-71
2021/04/27 06:39:53;;;;;;;7.80;4.60;;;8.20;56.50;;;;;;5092183;28;20085;-70
2021/04/27 06:42:19;;;;;;;10.55;4.90;;;8.40;55.50;;;;;;5092428;28;20024;-71
2021/04/27 06:44:46;;;;;;;7.65;4.03;;;8.50;55.20;;;;;;5090750;28;20023;-71
2021/04/27 06:47:11;;;;;;;9.13;4.30;;;8.60;55.10;;;;;;5090802;28;20047;-71
2021/04/27 06:49:38;;;;;;;8.80;4.20;;;8.70;54.40;;;;;;5092379;28;20024;-71
2021/04/27 06:52:05;;;;;;;11.00;4.75;;;8.80;54.60;;;;;;5092005;28;20070;-70
2021/04/27 06:54:31;;;;;;;15.43;5.50;;;8.90;54.20;;;;;;5090857;28;20023;-71
2021/04/27 06:56:57;;;;;;;8.30;4.40;;;9.10;53.50;;;;;;5091835;28;20024;-72
2021/04/27 06:59:30;;;;;;;9.25;4.45;;;9.10;53.00;;;;;;5091932;28;20017;-70
2021/04/27 07:01:55;;;;;;;11.73;4.35;;;9.30;53.00;;;;;;5090324;28;20464;-72
2021/04/27 07:04:21;;;;;;;7.10;4.22;;;9.30;52.60;;;;;;5090665;28;20030;-71
2021/04/27 07:06:47;;;;;;;8.93;4.38;;;9.40;51.70;;;;;;5090411;28;20020;-70
2021/04/27 07:09:12;;;;;;;8.70;4.80;;;9.50;52.10;;;;;;5092051;28;20062;-71
2021/04/27 07:11:38;;;;;;;10.50;4.90;;;9.70;52.00;;;;;;5090490;28;20044;-71
2021/04/27 07:14:04;;;;;;;12.30;5.20;;;9.80;52.20;;;;;;5090372;28;20502;-71
2021/04/27 07:16:30;;;;;;;11.88;4.95;;;10.00;51.30;;;;;;5091905;28;20102;-70
2021/04/27 07:18:56;;;;;;;8.27;4.20;;;10.30;50.50;;;;;;5091680;28;20091;-71
2021/04/27 07:21:22;;;;;;;11.43;4.90;;;10.40;51.30;;;;;;5090552;28;20449;-71
2021/04/27 07:23:49;;;;;;;11.27;4.63;;;10.50;50.60;;;;;;5090008;28;20016;-71
2021/04/27 07:26:14;;;;;;;7.85;4.63;;;10.60;49.90;;;;;;5090649;28;20028;-70
2021/04/27 07:28:40;;;;;;;10.38;4.18;;;10.70;49.00;;;;;;5090514;28;20368;-71
2021/04/27 07:31:06;;;;;;;9.50;4.88;;;10.80;49.90;;;;;;5087051;28;20020;-70
2021/04/27 07:33:32;;;;;;;15.15;5.88;;;11.00;49.40;;;;;;5078159;28;20032;-71
2021/04/27 07:35:58;;;;;;;10.07;4.68;;;11.10;49.70;;;;;;5076389;28;20016;-70
2021/04/27 07:38:23;;;;;;;6.75;3.45;;;11.30;48.70;;;;;;5091715;28;20032;-71
2021/04/27 07:40:49;;;;;;;8.60;4.20;;;11.50;48.30;;;;;;5091655;28;20224;-71
2021/04/27 07:43:15;;;;;;;6.65;4.43;;;11.60;47.20;;;;;;5090530;28;20035;-71
2021/04/27 07:45:42;;;;;;;22.40;4.90;;;11.70;47.10;;;;;;5090768;28;20461;-69
2021/04/27 07:48:08;;;;;;;11.10;4.45;;;11.70;47.00;;;;;;5092423;28;20369;-69
2021/04/27 07:50:35;;;;;;;10.60;4.70;;;11.90;48.10;;;;;;5090660;28;20105;-69
2021/04/27 07:53:00;;;;;;;8.50;4.75;;;12.00;47.20;;;;;;5090828;28;20069;-70
2021/04/27 07:55:26;;;;;;;9.65;4.75;;;12.10;45.70;;;;;;5091853;28;20016;-70
2021/04/27 07:57:52;;;;;;;7.80;4.13;;;12.20;46.50;;;;;;5090174;28;20354;-70
2021/04/27 08:00:19;;;;;;;9.60;4.50;;;12.20;46.10;;;;;;5086788;28;20016;-70
2021/04/27 08:02:45;;;;;;;7.18;4.07;;;12.30;49.10;;;;;;5069964;28;20532;-70
2021/04/27 08:05:11;;;;;;;6.82;3.88;;;12.50;44.70;;;;;;5070243;28;20091;-69
2021/04/27 08:07:37;;;;;;;8.27;3.95;;;12.60;45.40;;;;;;5074013;28;20021;-70
2021/04/27 08:10:05;;;;;;;11.55;5.45;;;12.80;43.80;;;;;;5073519;28;20086;-69
2021/04/27 08:12:31;;;;;;;7.75;3.15;;;13.00;44.50;;;;;;5075236;28;20091;-70
2021/04/27 08:14:57;;;;;;;8.13;2.40;;;13.20;45.10;;;;;;5074605;28;20112;-71
2021/04/27 08:17:23;;;;;;;7.88;4.07;;;13.40;49.80;;;;;;5074881;28;20036;-70
2021/04/27 08:19:49;;;;;;;5.78;2.90;;;13.60;43.00;;;;;;5074692;28;20016;-70
2021/04/27 08:22:16;;;;;;;8.07;3.42;;;13.70;42.50;;;;;;5074620;28;20086;-70
2021/04/27 08:24:44;;;;;;;5.75;2.75;;;13.70;43.60;;;;;;5073261;28;20056;-70
2021/04/27 08:27:15;;;;;;;8.85;3.78;;;13.80;46.80;;;;;;5073452;28;20048;-71
2021/04/27 08:29:42;;;;;;;9.80;3.92;;;14.00;42.50;;;;;;5074573;28;20024;-70
2021/04/27 08:32:10;;;;;;;9.75;4.18;;;14.00;39.50;;;;;;5074326;28;20051;-71
2021/04/27 08:34:36;;;;;;;11.35;3.97;;;14.00;38.90;;;;;;5074563;28;20114;-71
2021/04/27 08:37:03;;;;;;;7.78;3.38;;;14.10;40.50;;;;;;5074661;28;20450;-71
2021/04/27 08:39:28;;;;;;;7.45;3.35;;;14.20;39.40;;;;;;5073380;28;20411;-70
2021/04/27 08:41:55;;;;;;;7.90;3.30;;;14.40;39.30;;;;;;5072616;28;20025;-71
2021/04/27 08:44:21;;;;;;;9.00;3.30;;;14.40;38.50;;;;;;5074442;28;20029;-71
2021/04/27 08:46:47;;;;;;;10.55;3.00;;;14.40;38.20;;;;;;5073172;28;20027;-70
2021/04/27 08:49:13;;;;;;;5.57;2.72;;;14.30;40.70;;;;;;5071634;28;20017;-70
2021/04/27 08:51:39;;;;;;;7.20;2.35;;;14.30;42.90;;;;;;5074114;28;20030;-71
2021/04/27 08:54:07;;;;;;;8.35;2.58;;;14.60;49.10;;;;;;5072130;28;20016;-71
2021/04/27 08:56:33;;;;;;;10.57;4.50;;;14.90;44.90;;;;;;5074034;28;20025;-71
2021/04/27 08:58:59;;;;;;;6.75;3.80;;;15.10;39.70;;;;;;5073494;28;20407;-71
2021/04/27 09:01:25;;;;;;;8.82;3.70;;;15.20;37.90;;;;;;5081846;28;20020;-71
2021/04/27 09:03:58;;;;;;;7.43;3.78;;;15.20;38.90;;;;;;5078832;28;20071;-71
2021/04/27 09:06:24;;;;;;;7.30;3.00;;;15.20;37.40;;;;;;5074256;28;20031;-71
2021/04/27 09:08:53;;;;;;;8.45;4.05;;;15.20;45.00;;;;;;5090065;28;20012;-71
2021/04/27 09:11:30;;;;;;;8.77;4.40;;;15.40;40.40;;;;;;5081319;28;20468;-71
2021/04/27 09:14:17;;;;;;;10.27;4.22;;;15.60;37.50;;;;;;5079049;28;20021;-71
2021/04/27 09:16:54;;;;;;;5.70;3.50;;;15.70;36.90;;;;;;5089720;28;20043;-70
2021/04/27 09:19:56;;;;;;;7.90;3.60;;;15.60;38.00;;;;;;5081407;28;20012;-71
2021/04/27 09:22:27;;;;;;;10.35;4.13;;;15.80;36.40;;;;;;5076316;28;20052;-71
2021/04/27 09:24:54;;;;;;;;;;;15.80;34.70;;;;;;5089282;28;20020;-71
2021/04/27 09:27:35;;;;;;;5.38;2.75;;;15.70;39.60;;;;;;5080134;28;19918;-71
2021/04/27 09:30:15;;;;;;;7.10;3.17;;;15.80;38.50;;;;;;5079373;28;20013;-70
2021/04/27 09:32:42;;;;;;;6.55;3.38;;;15.90;36.90;;;;;;5089389;28;20103;-71
2021/04/27 09:35:35;;;;;;;5.85;3.40;;;16.10;37.50;;;;;;5071574;28;20009;-71
2021/04/27 09:38:06;;;;;;;5.78;2.40;;;16.20;35.70;;;;;;5086496;28;20145;-71
2021/04/27 09:40:32;;;;;;;4.90;2.30;;;16.50;41.00;;;;;;5076156;28;20449;-71
2021/04/27 09:43:04;;;;;;;6.72;3.03;;;16.80;39.60;;;;;;5087634;28;20066;-71
2021/04/27 09:45:44;;;;;;;6.45;3.25;;;16.90;37.80;;;;;;5082754;28;20012;-70
2021/04/27 09:48:10;;;;;;;13.05;3.70;;;17.00;34.80;;;;;;5076713;28;20424;-70
2021/04/27 09:50:37;;;;;;;6.85;3.00;;;17.00;33.20;;;;;;5089862;28;20012;-71
2021/04/27 09:53:03;;;;;;;6.68;2.63;;;17.00;35.90;;;;;;5078050;28;20016;-71
2021/04/27 09:55:31;;;;;;;7.10;2.90;;;17.00;38.80;;;;;;5083234;28;20027;-71
2021/04/27 09:57:58;;;;;;;7.10;3.33;;;17.20;39.70;;;;;;5085340;28;20024;-70
2021/04/27 10:00:35;;;;;;;6.85;3.00;;;17.40;33.90;;;;;;5074270;28;20024;-71
2021/04/27 10:03:09;;;;;;;4.10;2.00;;;17.50;31.20;;;;;;5090910;28;20016;-72
2021/04/27 10:05:37;;;;;;;7.53;3.80;;;17.50;36.30;;;;;;5092732;28;20451;-71
2021/04/27 10:08:04;;;;;;;6.78;3.15;;;17.50;33.60;;;;;;5092867;28;20467;-71
2021/04/27 10:10:31;;;;;;;11.10;3.45;;;17.50;34.30;;;;;;5092711;28;20515;-71
2021/04/27 10:13:09;;;;;;;10.30;2.97;;;17.80;31.00;;;;;;5092428;28;20012;-71
2021/04/27 10:15:35;;;;;;;3.95;2.08;;;17.90;31.40;;;;;;5091068;28;20020;-71
2021/04/27 10:18:04;;;;;;;5.45;2.80;;;17.90;34.10;;;;;;5091161;28;20055;-71
2021/04/27 10:20:31;;;;;;;10.80;3.20;;;17.90;31.80;;;;;;5091567;28;20047;-71
2021/04/27 10:22:58;;;;;;;5.30;2.47;;;17.70;30.50;;;;;;5090982;28;20019;-71
2021/04/27 10:25:28;;;;;;;5.95;2.47;;;17.80;35.90;;;;;;5091502;28;20020;-71
2021/04/27 10:28:12;;;;;;;7.07;2.80;;;17.90;38.30;;;;;;5092704;28;20022;-71
2021/04/27 10:30:47;;;;;;;6.13;2.38;;;18.00;32.30;;;;;;5091018;28;20016;-70
2021/04/27 10:33:26;;;;;;;5.13;1.83;;;18.20;35.70;;;;;;5092857;28;20077;-71
2021/04/27 10:36:10;;;;;;;5.07;2.08;;;18.30;40.80;;;;;;5091357;28;20024;-72
2021/04/27 10:38:45;;;;;;;5.75;2.25;;;18.40;42.60;;;;;;5092688;28;20024;-70
2021/04/27 10:41:13;;;;;;;7.10;3.08;;;18.60;34.20;;;;;;5092308;28;20023;-72
2021/04/27 10:43:43;;;;;;;8.57;3.00;;;18.70;38.80;;;;;;5091701;28;20028;-70
2021/04/27 10:46:09;;;;;;;5.28;2.28;;;18.90;30.10;;;;;;5092650;28;20055;-71
2021/04/27 10:48:44;;;;;;;4.85;1.77;;;18.70;36.80;;;;;;5091004;28;20055;-71
2021/04/27 10:51:25;;;;;;;5.28;2.80;;;18.60;39.10;;;;;;5090640;28;20020;-70
2021/04/27 10:54:13;;;;;;;6.55;2.65;;;18.70;30.40;;;;;;5092255;28;20025;-71
2021/04/27 10:56:39;;;;;;;7.10;3.20;;;18.60;29.10;;;;;;5092241;28;20376;-70
2021/04/27 10:59:12;;;;;;;12.07;4.50;;;18.30;32.00;;;;;;5091940;28;20018;-71
2021/04/27 11:01:41;;;;;;;7.53;3.08;;;18.20;31.60;;;;;;5077388;28;20055;-71
2021/04/27 11:04:26;;;;;;;6.97;2.72;;;18.30;32.00;;;;;;5071619;28;20108;-71
2021/04/27 11:07:20;;;;;;;6.10;3.42;;;18.60;32.80;;;;;;5072386;28;20043;-70
2021/04/27 11:09:57;;;;;;;6.95;2.78;;;19.00;30.30;;;;;;5072693;28;20072;-70
2021/04/27 11:12:29;;;;;;;6.32;3.03;;;19.10;38.80;;;;;;5071993;28;20028;-70
2021/04/27 11:15:10;;;;;;;5.65;2.95;;;19.10;29.70;;;;;;5070548;28;20025;-70
2021/04/27 11:17:40;;;;;;;10.70;3.70;;;19.30;33.20;;;;;;5070058;28;20013;-71
2021/04/27 11:20:09;;;;;;;10.15;3.45;;;19.50;29.80;;;;;;5071754;28;20023;-70
2021/04/27 11:22:37;;;;;;;8.50;2.28;;;19.60;30.30;;;;;;5072093;28;20534;-70
2021/04/27 11:25:09;;;;;;;5.40;2.90;;;19.60;39.10;;;;;;5071521;28;20036;-70
2021/04/27 11:27:38;;;;;;;5.32;2.53;;;19.50;33.20;;;;;;5071762;28;20023;-71
2021/04/27 11:30:09;;;;;;;5.95;2.80;;;19.40;34.40;;;;;;5071405;28;20444;-71
2021/04/27 11:32:35;;;;;;;;;;;19.50;41.10;;;;;;5071825;28;20056;-71
2021/04/27 11:35:05;;;;;;;4.60;2.30;;;19.70;36.90;;;;;;5069654;28;19901;-71
2021/04/27 11:37:42;;;;;;;3.03;1.83;;;19.80;39.50;;;;;;5071234;28;20028;-71
2021/04/27 11:40:14;;;;;;;5.25;3.03;;;20.20;45.50;;;;;;5071834;28;20044;-71
2021/04/27 11:42:39;;;;;;;8.57;3.63;;;20.40;36.60;;;;;;5073566;28;20057;-70
2021/04/27 11:45:09;;;;;;;4.70;3.03;;;20.50;29.60;;;;;;5075694;28;20028;-70
2021/04/27 11:47:38;;;;;;;5.82;2.88;;;20.50;34.30;;;;;;5076561;28;20028;-70
2021/04/27 11:50:05;;;;;;;6.80;3.38;;;20.70;32.40;;;;;;5075734;28;20029;-71
2021/04/27 11:52:46;;;;;;;5.90;2.42;;;20.90;33.00;;;;;;5075601;28;20016;-71
2021/04/27 11:55:11;;;;;;;6.95;2.92;;;21.10;39.70;;;;;;5075412;28;20016;-71
2021/04/27 11:57:44;;;;;;;8.18;3.80;;;21.40;31.30;;;;;;5075546;28;20021;-71
2021/04/27 12:00:11;;;;;;;5.78;3.17;;;21.40;28.70;;;;;;5074948;28;20025;-70
2021/04/27 12:02:37;;;;;;;4.70;2.45;;;21.20;30.10;;;;;;5075423;28;20153;-70
2021/04/27 12:05:03;;;;;;;6.85;3.05;;;21.00;30.00;;;;;;5073637;28;20107;-70
2021/04/27 12:07:29;;;;;;;7.78;3.50;;;21.00;34.50;;;;;;5075045;28;20012;-71
2021/04/27 12:09:57;;;;;;;7.95;3.33;;;20.80;31.00;;;;;;5073652;28;20121;-71
2021/04/27 12:12:23;;;;;;;5.45;2.60;;;20.70;29.00;;;;;;5073699;28;20107;-70
2021/04/27 12:14:57;;;;;;;6.80;3.67;;;20.50;33.00;;;;;;5075267;28;20048;-71
2021/04/27 12:17:34;;;;;;;5.57;3.15;;;20.40;26.40;;;;;;5074968;28;20017;-71
2021/04/27 12:20:19;;;;;;;7.53;3.25;;;20.20;27.90;;;;;;5074920;28;20017;-70
2021/04/27 12:22:50;;;;;;;5.72;3.15;;;19.90;26.70;;;;;;5075151;28;20039;-70
2021/04/27 12:25:20;;;;;;;11.27;3.67;;;19.80;27.70;;;;;;5074494;28;20046;-70
2021/04/27 12:27:47;;;;;;;5.22;2.47;;;19.60;27.40;;;;;;5073669;28;20343;-71
2021/04/27 12:30:21;;;;;;;8.13;3.35;;;19.60;36.70;;;;;;5074610;28;20016;-71
2021/04/27 12:32:59;;;;;;;2.55;1.23;;;19.80;29.20;;;;;;5074841;28;20017;-71
2021/04/27 12:35:26;;;;;;;6.28;2.83;;;19.90;44.40;;;;;;5073381;28;20028;-71
2021/04/27 12:38:12;;;;;;;6.88;2.75;;;20.30;32.80;;;;;;5073244;28;20016;-71
2021/04/27 12:40:41;;;;;;;10.95;3.75;;;20.20;36.00;;;;;;5073188;28;20112;-70
2021/04/27 12:43:12;;;;;;;6.43;2.08;;;19.90;28.30;;;;;;5073793;28;20056;-71
2021/04/27 12:45:44;;;;;;;9.05;2.78;;;19.80;35.90;;;;;;5072763;28;20017;-71
2021/04/27 12:48:11;;;;;;;6.28;2.90;;;20.00;31.70;;;;;;5074297;28;20024;-70
2021/04/27 12:50:52;;;;;;;7.43;2.55;;;20.20;32.20;;;;;;5073312;28;20016;-71
2021/04/27 12:53:19;;;;;;;6.47;3.42;;;20.40;35.80;;;;;;5072694;28;20016;-71
2021/04/27 12:55:51;;;;;;;5.68;2.95;;;20.60;27.10;;;;;;5074414;28;20025;-70